メインページ
METAR-TAF:

METAR-TAF

空港 :

バスラ国際空港

バスラ, イラク

緯度: 30-32-56N, 経度: 47-39-45E, 海抜: 1m

現時点の気象観測

当レポートは1時間32分前の06:00(UTC)に作成
西/南西の風 6kt
気温 29°C
湿度 25%
気圧 1007 hPa
視程10km以上
1,500メートル以下は雲なし、積乱雲なし

METAR: ORMM 250600Z 24006KT CAVOK 29/07 Q1007 NOSIG

時間: 10:32 (07:32 UTC)

予報

当レポートは3時間32分前の04:00(UTC)に作成
予報は25日の 06時(UTC)から 26日の 06時(UTC)まで有効
南東の風 6kt
視程10km以上
1,500メートル以下は雲なし、積乱雲なし
25日の 19時(UTC)から 25日の 21時(UTC)まで徐々に
南/南西の風 6kt

TAF: ORMM 250400Z 2506/2606 14006KT CAVOK BECMG 2519/2521 21006KT

4,000以上の空港の気象観測と天気予報(METAR報とTAF報)

利用可能な観測所は地図上に黄色い丸と赤い丸で示す。

丸の上にカーソルを重ねると観測所名を参照できる。

次にクリックすると気象観測と天気予報を参照できる。

マップの切り替え:黒色「×」印の緑ボタンをクリックして拡大、「-」印の緑ボタンをクリックして縮小、緑色の三角印をクリックして隣りの地図に切り替え


METAR-TAF: